Airport ICAO


20:23 UTC

18°C


An affordable passengers' Moving Map for your aircraft. Made for the iPad and the iPhone
More information here

LFMC Le Cannet


Le Luc FRANCE   


METAR LFMC 162000Z AUTO VRB02KT 9999 ////// 18/17 Q1011 0h23min





NOTAMS

OPEN